createdAt,value
2018-03-22T00:00:10.005Z,7.36
2018-03-22T00:02:37.639Z,7.35
2018-03-22T00:05:05.257Z,7.28
2018-03-22T00:07:32.848Z,7.32
2018-03-22T00:10:00.475Z,7.28
2018-03-22T00:12:28.078Z,7.11
2018-03-22T00:14:55.677Z,7.19
2018-03-22T00:17:23.460Z,7.04
2018-03-22T00:19:51.060Z,7.17
2018-03-22T00:25:17.804Z,7.15
2018-03-22T00:27:45.450Z,7.05
2018-03-22T00:30:13.075Z,7.21
2018-03-22T00:32:40.769Z,7.24
2018-03-22T00:35:08.432Z,7.17
2018-03-22T00:37:36.023Z,7.23
2018-03-22T00:40:03.707Z,7.39
2018-03-22T00:42:31.306Z,7.31
2018-03-22T00:44:58.899Z,7.35
2018-03-22T00:47:26.568Z,7.22
2018-03-22T00:49:54.179Z,7.15
2018-03-22T00:52:21.829Z,7.23
2018-03-22T00:54:49.460Z,6.83
2018-03-22T00:57:17.103Z,6.96
2018-03-22T00:59:44.717Z,6.50
2018-03-22T01:02:12.369Z,6.59
2018-03-22T01:04:39.967Z,6.59
2018-03-22T01:07:07.587Z,6.74
2018-03-22T01:09:35.200Z,6.53
2018-03-22T01:12:02.786Z,6.49
2018-03-22T01:14:30.426Z,6.48
2018-03-22T01:16:58.030Z,6.56
2018-03-22T01:19:25.678Z,6.29
2018-03-22T01:21:53.302Z,6.25
2018-03-22T01:24:20.900Z,6.20
2018-03-22T01:26:48.534Z,6.22
2018-03-22T01:29:16.131Z,6.21
2018-03-22T01:31:43.722Z,5.92
2018-03-22T01:34:11.338Z,6.11
2018-03-22T01:36:38.944Z,6.00
2018-03-22T01:39:06.588Z,6.00
2018-03-22T01:41:34.183Z,5.76
2018-03-22T01:44:01.808Z,5.62
2018-03-22T01:46:29.443Z,5.62
2018-03-22T01:48:57.031Z,5.75
2018-03-22T01:51:24.627Z,5.42
2018-03-22T01:53:52.227Z,5.58
2018-03-22T01:56:19.843Z,5.40
2018-03-22T01:58:47.474Z,5.48
2018-03-22T02:01:15.075Z,5.40
2018-03-22T02:03:42.667Z,5.41
2018-03-22T02:06:10.339Z,5.45
2018-03-22T02:08:37.946Z,5.27
2018-03-22T02:11:05.546Z,5.24
2018-03-22T02:13:33.190Z,5.16
2018-03-22T02:16:00.770Z,5.15
2018-03-22T02:18:28.354Z,5.11
2018-03-22T02:20:55.974Z,5.36
2018-03-22T02:23:23.563Z,5.32
2018-03-22T02:25:51.175Z,5.37
2018-03-22T02:28:18.790Z,5.22
2018-03-22T02:30:46.375Z,5.37
2018-03-22T02:33:13.999Z,5.28
2018-03-22T02:35:41.587Z,5.35
2018-03-22T02:38:09.202Z,5.10
2018-03-22T02:40:36.846Z,5.09
2018-03-22T02:43:04.502Z,5.08
2018-03-22T02:45:32.101Z,5.07
2018-03-22T02:47:59.708Z,5.02
2018-03-22T02:50:27.299Z,5.02
2018-03-22T02:52:54.962Z,5.09
2018-03-22T02:55:22.551Z,5.20
2018-03-22T02:57:50.139Z,5.36
2018-03-22T03:00:17.853Z,5.30
2018-03-22T03:02:45.442Z,5.18
2018-03-22T03:05:13.044Z,5.13
2018-03-22T03:07:40.667Z,5.21
2018-03-22T03:10:08.354Z,5.29
2018-03-22T03:12:35.971Z,5.23
2018-03-22T03:15:03.622Z,5.14
2018-03-22T03:17:31.308Z,5.41
2018-03-22T03:19:58.899Z,5.39
2018-03-22T03:22:26.539Z,5.53
2018-03-22T03:24:54.151Z,5.63
2018-03-22T03:27:21.791Z,5.64
2018-03-22T03:29:49.590Z,5.73
2018-03-22T03:32:17.211Z,5.64
2018-03-22T03:34:44.831Z,5.66
2018-03-22T03:37:12.644Z,5.51
2018-03-22T03:39:40.285Z,5.50
2018-03-22T03:42:08.382Z,5.46
2018-03-22T03:44:36.063Z,5.32
2018-03-22T03:47:03.669Z,5.58
2018-03-22T03:49:31.265Z,5.47
2018-03-22T03:51:58.855Z,5.20
2018-03-22T03:54:26.444Z,5.40
2018-03-22T03:56:54.088Z,5.23
2018-03-22T03:59:21.682Z,4.99
2018-03-22T04:01:49.298Z,4.86
2018-03-22T04:04:16.974Z,4.91
2018-03-22T04:06:44.654Z,5.15
2018-03-22T04:09:12.288Z,5.07
2018-03-22T04:11:39.899Z,5.14
2018-03-22T04:14:07.490Z,4.96
2018-03-22T04:16:35.203Z,5.03
2018-03-22T04:19:02.815Z,4.95
2018-03-22T04:21:30.872Z,4.59
2018-03-22T04:23:58.832Z,4.58
2018-03-22T04:26:26.421Z,4.64
2018-03-22T04:28:54.107Z,4.52
2018-03-22T04:31:21.715Z,4.53
2018-03-22T04:33:49.366Z,4.45
2018-03-22T04:36:16.994Z,4.23
2018-03-22T04:38:44.827Z,4.13
2018-03-22T04:41:12.714Z,4.05
2018-03-22T04:43:40.395Z,3.99
2018-03-22T04:46:08.208Z,3.77
2018-03-22T04:48:35.903Z,3.63
2018-03-22T04:51:03.570Z,3.62
2018-03-22T04:53:31.255Z,3.41
2018-03-22T04:55:58.942Z,3.55
2018-03-22T04:58:26.531Z,3.42
2018-03-22T05:00:54.201Z,3.41
2018-03-22T05:03:21.855Z,3.57
2018-03-22T05:05:49.498Z,3.52
2018-03-22T05:08:17.128Z,3.33
2018-03-22T05:10:44.730Z,3.36
2018-03-22T05:13:12.330Z,3.14
2018-03-22T05:15:39.951Z,2.85
2018-03-22T05:18:07.547Z,2.87
2018-03-22T05:20:35.194Z,2.82
2018-03-22T05:23:02.786Z,2.72
2018-03-22T05:25:30.426Z,2.91
2018-03-22T05:27:58.027Z,2.56
2018-03-22T05:30:25.645Z,2.51
2018-03-22T05:32:53.316Z,2.53
2018-03-22T05:35:20.944Z,2.48
2018-03-22T05:37:48.548Z,2.26
2018-03-22T05:40:16.343Z,2.25
2018-03-22T05:42:43.986Z,2.22
2018-03-22T05:45:11.663Z,2.03
2018-03-22T05:47:39.309Z,2.16
2018-03-22T05:50:06.922Z,2.07
2018-03-22T05:52:34.627Z,1.99
2018-03-22T05:55:02.249Z,1.86
2018-03-22T05:57:29.868Z,1.74
2018-03-22T05:59:57.502Z,1.87
2018-03-22T06:02:25.092Z,1.94
2018-03-22T06:04:52.684Z,1.99
2018-03-22T06:07:20.331Z,1.94
2018-03-22T06:09:47.931Z,1.89
2018-03-22T06:12:15.526Z,1.72
2018-03-22T06:14:43.127Z,1.71
2018-03-22T06:17:10.780Z,1.72
2018-03-22T06:19:38.427Z,1.83
2018-03-22T06:22:06.021Z,1.69
2018-03-22T06:24:33.623Z,1.71
2018-03-22T06:27:01.223Z,1.75
2018-03-22T06:29:28.842Z,1.75
2018-03-22T06:31:56.475Z,1.57
2018-03-22T06:34:24.086Z,1.61
2018-03-22T06:36:51.720Z,1.73
2018-03-22T06:39:19.364Z,1.64
2018-03-22T06:41:47.011Z,1.71
2018-03-22T06:44:14.614Z,1.79
2018-03-22T06:46:42.243Z,1.82
2018-03-22T06:49:09.854Z,1.70
2018-03-22T06:51:37.472Z,1.72
2018-03-22T06:54:05.195Z,1.65
2018-03-22T06:56:33.635Z,1.69
2018-03-22T06:59:01.291Z,1.66
2018-03-22T07:01:28.951Z,1.78
2018-03-22T07:03:56.546Z,1.87
2018-03-22T07:06:24.189Z,1.90
2018-03-22T07:08:51.786Z,1.60
2018-03-22T07:11:19.416Z,1.70
2018-03-22T07:13:47.003Z,1.83
2018-03-22T07:16:14.627Z,1.76
2018-03-22T07:18:42.278Z,1.77
2018-03-22T07:21:09.898Z,1.63
2018-03-22T07:23:37.511Z,1.77
2018-03-22T07:26:05.111Z,1.79
2018-03-22T07:28:32.734Z,1.71
2018-03-22T07:31:00.416Z,1.69
2018-03-22T07:33:27.999Z,1.69
2018-03-22T07:35:55.709Z,1.81
2018-03-22T07:38:23.347Z,1.85
2018-03-22T07:40:50.950Z,1.79
2018-03-22T07:43:24.551Z,1.67
2018-03-22T07:45:52.143Z,1.83
2018-03-22T07:48:19.911Z,1.91
2018-03-22T07:50:47.551Z,2.01
2018-03-22T07:53:15.186Z,1.92
2018-03-22T07:55:42.810Z,1.84
2018-03-22T07:58:10.580Z,1.79
2018-03-22T08:00:38.207Z,1.84
2018-03-22T08:03:05.878Z,1.79
2018-03-22T08:05:33.551Z,1.84
2018-03-22T08:08:01.183Z,1.93
2018-03-22T08:10:28.818Z,1.92
2018-03-22T08:12:56.494Z,1.81
2018-03-22T08:15:24.202Z,1.75
2018-03-22T08:17:51.979Z,1.69
2018-03-22T08:20:19.663Z,1.72
2018-03-22T08:22:47.290Z,1.83
2018-03-22T08:25:14.931Z,1.80
2018-03-22T08:27:42.581Z,1.78
2018-03-22T08:30:10.212Z,1.84
2018-03-22T08:32:37.837Z,1.94
2018-03-22T08:35:05.456Z,1.70
2018-03-22T08:37:33.151Z,1.90
2018-03-22T08:40:00.780Z,1.86
2018-03-22T08:42:28.374Z,1.98
2018-03-22T08:44:56.047Z,1.91
2018-03-22T08:47:23.675Z,1.99
2018-03-22T08:49:51.311Z,1.98
2018-03-22T08:52:18.903Z,1.85
2018-03-22T08:54:46.499Z,2.01
2018-03-22T08:57:14.232Z,1.93
2018-03-22T08:59:41.898Z,1.95
2018-03-22T09:02:09.492Z,1.99
2018-03-22T09:04:37.126Z,2.08
2018-03-22T09:07:04.771Z,2.04
2018-03-22T09:09:32.378Z,2.10
2018-03-22T09:12:00.187Z,2.15
2018-03-22T09:14:27.778Z,2.08
2018-03-22T09:16:55.419Z,2.16
2018-03-22T09:19:23.023Z,2.08
2018-03-22T09:21:50.610Z,2.29
2018-03-22T09:24:18.236Z,2.39
2018-03-22T09:26:51.455Z,2.47
2018-03-22T09:29:19.147Z,2.41
2018-03-22T09:31:46.782Z,2.39
2018-03-22T09:34:14.383Z,2.32
2018-03-22T09:36:42.023Z,2.34
2018-03-22T09:39:09.711Z,2.41
2018-03-22T09:41:37.359Z,2.35
2018-03-22T09:44:04.958Z,2.33
2018-03-22T09:46:32.575Z,2.31
2018-03-22T09:49:00.231Z,2.20
2018-03-22T09:51:27.834Z,2.09
2018-03-22T09:53:55.426Z,2.32
2018-03-22T09:56:23.099Z,2.17
2018-03-22T09:58:50.699Z,2.28
2018-03-22T10:01:18.290Z,2.21
2018-03-22T10:03:45.899Z,2.11
2018-03-22T10:06:13.526Z,2.14
2018-03-22T10:08:41.183Z,2.22
2018-03-22T10:11:08.788Z,2.23
2018-03-22T10:13:36.422Z,2.44
2018-03-22T10:16:04.070Z,2.33
2018-03-22T10:18:31.680Z,2.18
2018-03-22T10:20:59.311Z,2.12
2018-03-22T10:23:26.955Z,2.09
2018-03-22T10:25:54.539Z,2.21
2018-03-22T10:28:22.166Z,2.03
2018-03-22T10:30:49.804Z,2.19
2018-03-22T10:33:17.391Z,2.13
2018-03-22T10:35:45.023Z,2.12
2018-03-22T10:38:12.611Z,2.13
2018-03-22T10:40:40.203Z,2.24
2018-03-22T10:43:07.799Z,2.30
2018-03-22T10:45:35.390Z,2.43
2018-03-22T10:48:03.072Z,2.44
2018-03-22T10:50:30.679Z,2.26
2018-03-22T10:52:58.303Z,2.33
2018-03-22T10:55:25.905Z,2.48
2018-03-22T10:57:53.511Z,2.53
2018-03-22T11:00:26.658Z,2.26
2018-03-22T11:02:54.303Z,2.10
2018-03-22T11:05:21.910Z,2.24
2018-03-22T11:07:49.527Z,2.25
2018-03-22T11:10:17.169Z,2.18
2018-03-22T11:12:44.902Z,2.23
2018-03-22T11:15:12.539Z,2.11
2018-03-22T11:17:40.330Z,2.18
2018-03-22T11:20:08.094Z,2.23
2018-03-22T11:22:35.779Z,2.29
2018-03-22T11:25:03.436Z,2.08
2018-03-22T11:27:31.100Z,2.08
2018-03-22T11:29:58.698Z,2.10
2018-03-22T11:32:26.302Z,2.05
2018-03-22T11:34:53.902Z,1.98
2018-03-22T11:37:21.527Z,2.11
2018-03-22T11:39:49.123Z,2.13
2018-03-22T11:42:16.736Z,2.22
2018-03-22T11:44:44.380Z,2.07
2018-03-22T11:47:12.003Z,2.09
2018-03-22T11:49:39.611Z,1.99
2018-03-22T11:52:07.215Z,2.01
2018-03-22T11:54:34.854Z,2.06
2018-03-22T11:57:02.449Z,1.98
2018-03-22T11:59:30.042Z,1.84
2018-03-22T12:01:57.706Z,1.76
2018-03-22T12:04:25.300Z,1.94
2018-03-22T12:06:52.903Z,1.92
2018-03-22T12:09:20.494Z,1.88
2018-03-22T12:11:48.103Z,2.02
2018-03-22T12:14:15.699Z,1.79
2018-03-22T12:16:43.335Z,1.75
2018-03-22T12:19:10.923Z,1.61
2018-03-22T12:21:38.576Z,1.74
2018-03-22T12:24:06.248Z,1.80
2018-03-22T12:26:33.875Z,1.89
2018-03-22T12:29:01.485Z,1.79
2018-03-22T12:31:29.083Z,1.67
2018-03-22T12:33:56.675Z,1.79
2018-03-22T12:36:24.315Z,1.93
2018-03-22T12:38:51.911Z,1.88
2018-03-22T12:41:19.503Z,1.89
2018-03-22T12:43:47.137Z,1.83
2018-03-22T12:46:14.760Z,1.72
2018-03-22T12:48:42.346Z,1.89
2018-03-22T12:51:09.947Z,1.63
2018-03-22T12:53:37.542Z,1.62
2018-03-22T12:56:05.174Z,1.67
2018-03-22T12:58:32.770Z,1.61
2018-03-22T13:01:00.359Z,1.69
2018-03-22T13:03:27.983Z,1.75
2018-03-22T13:05:55.601Z,1.70
2018-03-22T13:08:23.231Z,1.58
2018-03-22T13:10:50.894Z,1.59
2018-03-22T13:13:18.491Z,1.67
2018-03-22T13:15:46.106Z,1.79
2018-03-22T13:18:13.731Z,1.86
2018-03-22T13:20:41.344Z,1.61
2018-03-22T13:23:08.931Z,1.78
2018-03-22T13:25:36.517Z,1.75
2018-03-22T13:28:04.164Z,1.81
2018-03-22T13:30:31.755Z,1.67
2018-03-22T13:32:59.342Z,1.64
2018-03-22T13:35:26.990Z,1.68
2018-03-22T13:37:54.622Z,1.61
2018-03-22T13:40:22.223Z,1.70
2018-03-22T13:42:49.823Z,1.92
2018-03-22T13:45:17.443Z,1.74
2018-03-22T13:47:45.052Z,1.85
2018-03-22T13:50:12.698Z,1.71
2018-03-22T13:52:40.407Z,1.73
2018-03-22T13:55:08.007Z,1.72
2018-03-22T13:57:35.600Z,1.47
2018-03-22T14:00:03.215Z,1.45
2018-03-22T14:02:30.806Z,1.49
2018-03-22T14:04:58.391Z,1.55
2018-03-22T14:07:26.022Z,1.56
2018-03-22T14:09:53.607Z,1.53
2018-03-22T14:12:21.191Z,1.53
2018-03-22T14:14:48.813Z,1.56
2018-03-22T14:17:16.415Z,1.52
2018-03-22T14:19:44.044Z,1.61
2018-03-22T14:22:11.648Z,1.59
2018-03-22T14:24:39.266Z,1.65
2018-03-22T14:27:06.867Z,1.57
2018-03-22T14:29:34.476Z,1.58
2018-03-22T14:32:02.123Z,1.68
2018-03-22T14:34:29.711Z,1.63
2018-03-22T14:36:57.418Z,1.70
2018-03-22T14:39:25.152Z,1.78
2018-03-22T14:41:52.759Z,1.76
2018-03-22T14:44:20.355Z,1.55
2018-03-22T14:46:48.001Z,1.57
2018-03-22T14:49:15.671Z,1.55
2018-03-22T14:51:43.268Z,1.57
2018-03-22T14:54:11.251Z,1.57
2018-03-22T14:56:38.842Z,1.43
2018-03-22T14:59:06.424Z,1.44
2018-03-22T15:01:34.052Z,1.39
2018-03-22T15:04:01.667Z,1.33
2018-03-22T15:06:29.256Z,1.44
2018-03-22T15:08:56.843Z,1.60
2018-03-22T15:11:24.533Z,1.64
2018-03-22T15:13:52.127Z,1.55
2018-03-22T15:16:19.715Z,1.43
2018-03-22T15:18:47.342Z,1.36
2018-03-22T15:21:14.988Z,1.52
2018-03-22T15:23:42.657Z,1.48
2018-03-22T15:26:10.251Z,1.53
2018-03-22T15:28:37.876Z,1.59
2018-03-22T15:31:05.479Z,1.70
2018-03-22T15:33:33.083Z,1.46
2018-03-22T15:36:00.705Z,1.43
2018-03-22T15:38:28.291Z,1.57
2018-03-22T15:40:55.881Z,1.51
2018-03-22T15:43:23.552Z,1.49
2018-03-22T15:45:51.152Z,1.53
2018-03-22T15:48:18.755Z,1.58
2018-03-22T15:50:46.339Z,1.24
2018-03-22T15:53:13.947Z,1.40
2018-03-22T15:55:41.566Z,1.49
2018-03-22T15:58:09.167Z,1.32
2018-03-22T16:00:36.770Z,1.46
2018-03-22T16:03:04.389Z,1.53
2018-03-22T16:05:32.026Z,1.55
2018-03-22T16:07:59.628Z,1.53
2018-03-22T16:10:27.284Z,1.44
2018-03-22T16:12:54.875Z,1.47
2018-03-22T16:15:22.479Z,1.42
2018-03-22T16:17:50.067Z,1.50
2018-03-22T16:20:17.692Z,1.28
2018-03-22T16:22:45.411Z,1.43
2018-03-22T16:25:13.032Z,1.29
2018-03-22T16:27:40.667Z,1.24
2018-03-22T16:30:08.251Z,1.30
2018-03-22T16:32:35.838Z,1.36
2018-03-22T16:35:03.515Z,1.29
2018-03-22T16:37:31.130Z,1.27
2018-03-22T16:39:58.720Z,1.33
2018-03-22T16:42:26.335Z,1.17
2018-03-22T16:44:53.992Z,1.46
2018-03-22T16:47:21.582Z,1.28
2018-03-22T16:49:49.256Z,1.28
2018-03-22T16:52:16.895Z,1.14
2018-03-22T16:54:44.482Z,1.44
2018-03-22T16:57:12.076Z,1.26
2018-03-22T16:59:39.701Z,1.36
2018-03-22T17:02:07.302Z,1.39
2018-03-22T17:04:34.896Z,1.47
2018-03-22T17:07:02.499Z,1.39
2018-03-22T17:09:30.131Z,1.51
2018-03-22T17:11:57.723Z,1.58
2018-03-22T17:14:25.307Z,1.52
2018-03-22T17:16:52.911Z,1.45
2018-03-22T17:19:20.517Z,1.31
2018-03-22T17:21:48.211Z,1.39
2018-03-22T17:24:15.802Z,1.28
2018-03-22T17:26:43.422Z,1.43
2018-03-22T17:29:11.090Z,1.35
2018-03-22T17:31:38.723Z,1.36
2018-03-22T17:34:06.307Z,1.44
2018-03-22T17:36:33.930Z,1.34
2018-03-22T17:39:01.520Z,1.43
2018-03-22T17:41:29.116Z,1.13
2018-03-22T17:43:56.739Z,1.37
2018-03-22T17:46:24.332Z,1.41
2018-03-22T17:48:51.999Z,1.44
2018-03-22T17:51:19.631Z,1.34
2018-03-22T17:53:47.259Z,1.30
2018-03-22T17:56:14.851Z,1.38
2018-03-22T17:58:42.435Z,1.58
2018-03-22T18:01:10.074Z,1.47
2018-03-22T18:03:37.678Z,1.62
2018-03-22T18:06:05.339Z,1.52
2018-03-22T18:08:33.009Z,1.45
2018-03-22T18:11:00.704Z,1.38
2018-03-22T18:13:28.371Z,1.44
2018-03-22T18:15:55.971Z,1.35
2018-03-22T18:18:23.563Z,1.36
2018-03-22T18:20:51.217Z,1.42
2018-03-22T18:23:18.841Z,1.37
2018-03-22T18:25:46.460Z,1.54
2018-03-22T18:28:14.123Z,1.35
2018-03-22T18:30:41.742Z,1.43
2018-03-22T18:33:09.326Z,1.28
2018-03-22T18:35:40.131Z,1.47
2018-03-22T18:38:07.766Z,1.33
2018-03-22T18:40:35.540Z,1.38
2018-03-22T18:43:03.135Z,1.39
2018-03-22T18:45:30.731Z,1.20
2018-03-22T18:47:58.402Z,1.39
2018-03-22T18:50:25.998Z,1.46
2018-03-22T18:52:53.596Z,1.56
2018-03-22T18:55:21.191Z,1.55
2018-03-22T18:57:48.867Z,1.54
2018-03-22T19:00:16.494Z,1.49
2018-03-22T19:02:44.082Z,1.53
2018-03-22T19:05:11.675Z,1.39
2018-03-22T19:07:39.303Z,1.41
2018-03-22T19:10:06.891Z,1.53
2018-03-22T19:12:34.478Z,1.62
2018-03-22T19:15:02.083Z,1.53
2018-03-22T19:17:29.675Z,1.54
2018-03-22T19:19:57.298Z,1.46
2018-03-22T19:22:24.887Z,1.45
2018-03-22T19:24:52.478Z,1.41
2018-03-22T19:27:20.156Z,1.30
2018-03-22T19:29:47.752Z,1.34
2018-03-22T19:32:15.340Z,1.39
2018-03-22T19:34:42.922Z,1.30
2018-03-22T19:37:10.517Z,1.28
2018-03-22T19:39:38.135Z,1.32
2018-03-22T19:42:05.730Z,1.28
2018-03-22T19:44:33.367Z,1.28
2018-03-22T19:47:00.951Z,1.26
2018-03-22T19:49:28.551Z,1.37
2018-03-22T19:51:56.183Z,1.09
2018-03-22T19:54:23.772Z,1.20
2018-03-22T19:56:51.367Z,1.35
2018-03-22T19:59:18.983Z,1.29
2018-03-22T20:01:46.635Z,1.24
2018-03-22T20:04:14.236Z,1.17
2018-03-22T20:06:41.832Z,1.13
2018-03-22T20:09:09.460Z,1.19
2018-03-22T20:11:37.050Z,1.24
2018-03-22T20:14:04.659Z,1.15
2018-03-22T20:16:32.255Z,1.17
2018-03-22T20:18:59.855Z,1.28
2018-03-22T20:21:27.455Z,1.31
2018-03-22T20:23:55.114Z,1.19
2018-03-22T20:26:22.748Z,1.17
2018-03-22T20:28:50.331Z,1.13
2018-03-22T20:31:17.911Z,1.19
2018-03-22T20:33:45.571Z,1.24
2018-03-22T20:36:13.179Z,1.11
2018-03-22T20:38:40.804Z,1.09
2018-03-22T20:41:08.403Z,1.16
2018-03-22T20:43:36.023Z,1.21
2018-03-22T20:46:03.707Z,1.30
2018-03-22T20:48:31.319Z,1.21
2018-03-22T20:50:58.908Z,1.16
2018-03-22T20:53:26.511Z,1.28
2018-03-22T20:55:54.096Z,1.28
2018-03-22T20:58:21.782Z,1.20
2018-03-22T21:00:49.382Z,1.05
2018-03-22T21:03:16.971Z,1.07
2018-03-22T21:05:44.603Z,1.26
2018-03-22T21:08:12.327Z,1.16
2018-03-22T21:10:39.936Z,1.07
2018-03-22T21:13:07.555Z,0.94
2018-03-22T21:15:35.158Z,1.15
2018-03-22T21:18:02.755Z,1.05
2018-03-22T21:20:30.388Z,1.15
2018-03-22T21:22:58.011Z,1.23
2018-03-22T21:25:25.644Z,1.06
2018-03-22T21:27:53.255Z,1.24
2018-03-22T21:30:20.887Z,0.94
2018-03-22T21:32:48.595Z,0.93
2018-03-22T21:35:16.183Z,1.08
2018-03-22T21:37:43.808Z,1.18
2018-03-22T21:40:11.426Z,1.04
2018-03-22T21:42:39.039Z,1.07
2018-03-22T21:45:06.619Z,1.01
2018-03-22T21:47:34.265Z,1.12
2018-03-22T21:50:01.953Z,1.02
2018-03-22T21:52:41.422Z,1.10
2018-03-22T21:55:09.026Z,1.13
2018-03-22T21:57:36.608Z,1.08
2018-03-22T22:00:04.268Z,1.04
2018-03-22T22:02:31.858Z,0.98
2018-03-22T22:04:59.475Z,1.02
2018-03-22T22:07:27.107Z,1.05
2018-03-22T22:09:54.742Z,1.04
2018-03-22T22:12:22.340Z,1.03
2018-03-22T22:14:49.927Z,1.05
2018-03-22T22:17:17.547Z,1.13
2018-03-22T22:19:45.215Z,1.12
2018-03-22T22:22:12.830Z,1.17
2018-03-22T22:24:40.463Z,1.19
2018-03-22T22:27:08.122Z,1.17
2018-03-22T22:29:35.722Z,1.00
2018-03-22T22:32:03.323Z,1.09
2018-03-22T22:34:30.978Z,1.13
2018-03-22T22:36:58.567Z,1.18
2018-03-22T22:39:26.163Z,1.13
2018-03-22T22:41:53.760Z,1.13
2018-03-22T22:44:21.390Z,1.26
2018-03-22T22:46:48.991Z,1.30
2018-03-22T22:49:16.599Z,1.40
2018-03-22T22:51:44.206Z,1.34
2018-03-22T22:54:11.839Z,1.26
2018-03-22T22:56:39.456Z,1.22
2018-03-22T22:59:07.086Z,1.21
2018-03-22T23:01:34.731Z,1.18
2018-03-22T23:04:02.336Z,1.33
2018-03-22T23:06:29.914Z,1.32
2018-03-22T23:08:57.558Z,1.37
2018-03-22T23:11:25.179Z,1.35
2018-03-22T23:13:52.822Z,1.22
2018-03-22T23:16:20.410Z,1.09
2018-03-22T23:18:48.002Z,1.18
2018-03-22T23:21:15.595Z,1.16
2018-03-22T23:23:43.179Z,1.22
2018-03-22T23:26:10.836Z,1.35
2018-03-22T23:28:38.438Z,1.21
2018-03-22T23:31:06.083Z,1.07
2018-03-22T23:33:33.703Z,1.13
2018-03-22T23:36:01.303Z,1.05
2018-03-22T23:38:28.927Z,1.19
2018-03-22T23:40:56.531Z,1.23
2018-03-22T23:43:24.162Z,1.37
2018-03-22T23:45:51.804Z,1.20
2018-03-22T23:48:19.376Z,1.18
2018-03-22T23:50:46.967Z,1.18
2018-03-22T23:53:14.555Z,1.16
2018-03-22T23:55:42.234Z,1.24
2018-03-22T23:58:09.872Z,1.24
